Time;durP1;ratioP1;P1;durP2;ratioP2;P2;SDS_P1;SDS_P2;PMS_P1;PMS_P2;Temp;Humidity;BMP_temperature;BMP_pressure;BME280_temperature;BME280_humidity;BME280_pressure;Samples;Min_cycle;Max_cycle;Signal;HPM_P1;HPM_P2
2023/05/21 00:00:42;;;;;;;7.80;4.60;;;15.50;99.90;;;;;;5074583;28;20449;-85
2023/05/21 00:03:12;;;;;;;7.00;4.80;;;15.50;99.90;;;;;;5073981;28;21110;-84
2023/05/21 00:05:39;;;;;;;7.90;4.83;;;15.50;99.90;;;;;;5074411;28;20533;-85
2023/05/21 00:08:06;;;;;;;12.23;6.20;;;15.50;99.90;;;;;;5074331;28;20453;-85
2023/05/21 00:10:34;;;;;;;10.80;6.47;;;15.40;99.90;;;;;;5074329;28;20449;-85
2023/05/21 00:13:01;;;;;;;7.07;4.87;;;15.40;99.90;;;;;;5073829;28;20465;-85
2023/05/21 00:15:27;;;;;;;9.90;4.43;;;15.40;99.90;;;;;;5074214;28;20445;-84
2023/05/21 00:17:54;;;;;;;4.97;3.47;;;15.40;99.90;;;;;;5074078;28;20454;-85
2023/05/21 00:20:22;;;;;;;7.90;5.60;;;15.40;99.90;;;;;;5073297;28;20448;-85
2023/05/21 00:22:48;;;;;;;9.30;4.60;;;15.40;99.90;;;;;;5073875;28;20488;-85
2023/05/21 00:25:15;;;;;;;7.30;4.40;;;15.30;99.90;;;;;;5073617;28;20469;-85
2023/05/21 00:27:43;;;;;;;6.70;4.30;;;15.30;99.90;;;;;;5073901;28;20453;-85
2023/05/21 00:30:10;;;;;;;9.90;4.80;;;15.30;99.90;;;;;;5073574;28;20937;-85
2023/05/21 00:32:37;;;;;;;6.63;4.67;;;15.30;99.90;;;;;;5073784;28;20446;-84
2023/05/21 00:35:05;;;;;;;7.70;4.20;;;15.30;99.90;;;;;;5073777;28;20470;-85
2023/05/21 00:37:33;;;;;;;9.40;5.00;;;15.20;99.90;;;;;;5073461;28;20454;-85
2023/05/21 00:39:59;;;;;;;6.47;5.43;;;15.20;99.90;;;;;;5073743;28;20437;-85
2023/05/21 00:42:29;;;;;;;6.10;4.40;;;15.20;99.90;;;;;;5073311;28;20484;-85
2023/05/21 00:44:57;;;;;;;9.70;4.90;;;15.20;99.90;;;;;;5073278;28;20476;-85
2023/05/21 00:47:25;;;;;;;7.43;4.37;;;15.10;99.90;;;;;;5073833;28;20448;-85
2023/05/21 00:49:52;;;;;;;8.00;4.43;;;15.10;99.90;;;;;;5073336;28;20905;-85
2023/05/21 00:52:21;;;;;;;5.73;4.37;;;15.10;99.90;;;;;;5073363;28;20442;-85
2023/05/21 00:54:49;;;;;;;5.17;3.90;;;15.10;99.90;;;;;;5073596;28;20469;-85
2023/05/21 00:57:19;;;;;;;8.33;5.47;;;15.00;99.90;;;;;;5073463;28;20449;-85
2023/05/21 00:59:47;;;;;;;6.30;4.47;;;15.00;99.90;;;;;;5073298;28;21007;-85
2023/05/21 01:02:16;;;;;;;9.43;4.70;;;15.00;99.90;;;;;;5073439;28;20477;-85
2023/05/21 01:04:44;;;;;;;8.43;4.87;;;14.90;99.90;;;;;;5073236;28;20495;-85
2023/05/21 01:07:11;;;;;;;7.70;4.70;;;14.90;99.90;;;;;;5073281;28;20968;-85
2023/05/21 01:09:38;;;;;;;6.17;4.23;;;14.90;99.90;;;;;;5073351;28;20451;-85
2023/05/21 01:12:06;;;;;;;11.87;4.90;;;14.90;99.90;;;;;;5074287;28;20450;-85
2023/05/21 01:14:34;;;;;;;7.47;4.27;;;14.90;99.90;;;;;;5073094;28;20473;-85
2023/05/21 01:17:02;;;;;;;9.10;5.83;;;14.90;99.90;;;;;;5073643;28;20468;-85
2023/05/21 01:19:31;;;;;;;6.93;5.10;;;14.90;99.90;;;;;;5073368;28;20449;-85
2023/05/21 01:22:03;;;;;;;8.93;4.40;;;14.80;99.90;;;;;;5073491;28;20453;-84
2023/05/21 01:24:31;;;;;;;9.70;4.90;;;14.90;99.90;;;;;;5073277;28;20473;-85
2023/05/21 01:26:59;;;;;;;13.77;5.10;;;14.70;99.90;;;;;;5073213;28;20442;-85
2023/05/21 01:29:26;;;;;;;8.33;5.37;;;14.80;99.90;;;;;;5073443;28;20454;-84
2023/05/21 01:32:04;;;;;;;5.40;4.43;;;14.80;99.90;;;;;;5074837;28;20831;-85
2023/05/21 01:34:37;;;;;;;6.20;3.83;;;14.70;99.90;;;;;;5077061;28;21067;-85
2023/05/21 01:37:14;;;;;;;12.37;4.70;;;14.70;99.90;;;;;;5077385;28;20443;-85
2023/05/21 01:39:46;;;;;;;9.63;4.63;;;14.60;99.90;;;;;;5077111;28;20519;-85
2023/05/21 01:42:16;;;;;;;11.47;5.70;;;14.60;99.90;;;;;;5076670;28;20943;-85
2023/05/21 01:44:44;;;;;;;8.80;5.13;;;14.50;99.90;;;;;;5076704;28;20999;-85
2023/05/21 01:47:12;;;;;;;5.10;4.10;;;14.60;99.90;;;;;;5076871;28;20815;-85
2023/05/21 01:49:39;;;;;;;7.50;4.90;;;14.50;99.90;;;;;;5077196;28;20442;-85
2023/05/21 01:52:06;;;;;;;11.10;5.97;;;14.50;99.90;;;;;;5076662;28;20936;-85
2023/05/21 01:54:33;;;;;;;7.50;4.87;;;14.50;99.90;;;;;;5076421;28;21008;-85
2023/05/21 01:57:02;;;;;;;10.10;5.73;;;14.50;99.90;;;;;;5076883;28;20446;-85
2023/05/21 01:59:29;;;;;;;9.93;5.10;;;14.50;99.90;;;;;;5076759;28;20453;-85
2023/05/21 02:01:56;;;;;;;9.67;4.43;;;14.50;99.90;;;;;;5076493;28;20434;-85
2023/05/21 02:04:23;;;;;;;9.20;4.67;;;14.40;99.90;;;;;;5076342;28;20485;-85
2023/05/21 02:06:49;;;;;;;11.63;5.53;;;14.50;99.90;;;;;;5076611;28;20452;-85
2023/05/21 02:09:16;;;;;;;9.00;4.70;;;14.50;99.90;;;;;;5076678;28;20799;-85
2023/05/21 02:11:43;;;;;;;6.73;4.70;;;14.50;99.90;;;;;;5076717;28;20453;-85
2023/05/21 02:14:12;;;;;;;11.60;5.00;;;14.50;99.90;;;;;;5076403;28;20473;-85
2023/05/21 02:16:40;;;;;;;9.83;5.53;;;14.50;99.90;;;;;;5076486;28;20449;-85
2023/05/21 02:19:09;;;;;;;15.23;6.00;;;14.40;99.90;;;;;;5076369;28;20449;-85
2023/05/21 02:21:35;;;;;;;9.67;5.67;;;14.40;99.90;;;;;;5076656;28;20445;-85
2023/05/21 02:24:02;;;;;;;8.37;5.10;;;14.40;99.90;;;;;;5077872;28;20516;-85
2023/05/21 02:26:29;;;;;;;9.60;4.87;;;14.40;99.90;;;;;;5081817;28;20460;-85
2023/05/21 02:28:56;;;;;;;11.00;5.17;;;14.40;99.90;;;;;;5076217;28;20449;-85
2023/05/21 02:31:24;;;;;;;9.50;5.90;;;14.40;99.90;;;;;;5075947;28;20451;-85
2023/05/21 02:33:50;;;;;;;8.90;6.20;;;14.40;99.90;;;;;;5076148;28;20462;-85
2023/05/21 02:36:17;;;;;;;12.13;5.40;;;14.40;99.90;;;;;;5076124;28;20445;-85
2023/05/21 02:38:45;;;;;;;7.00;5.00;;;14.30;99.90;;;;;;5076109;28;20507;-85
2023/05/21 02:41:13;;;;;;;9.93;4.77;;;14.30;99.90;;;;;;5076072;28;20536;-86
2023/05/21 02:43:40;;;;;;;9.00;5.20;;;14.30;99.90;;;;;;5075090;28;20516;-85
2023/05/21 02:46:07;;;;;;;13.00;5.93;;;14.30;99.90;;;;;;5075954;28;20445;-85
2023/05/21 02:48:35;;;;;;;11.63;6.57;;;14.30;99.90;;;;;;5075916;28;20490;-85
2023/05/21 02:51:02;;;;;;;9.73;5.70;;;14.30;99.90;;;;;;5075937;28;20445;-85
2023/05/21 02:53:28;;;;;;;9.53;6.20;;;14.20;99.90;;;;;;5075865;28;20472;-85
2023/05/21 02:55:55;;;;;;;18.97;5.77;;;14.20;99.90;;;;;;5075573;28;20449;-85
2023/05/21 02:58:24;;;;;;;6.60;4.80;;;14.20;99.90;;;;;;5075523;28;20992;-86
2023/05/21 03:00:51;;;;;;;9.33;4.77;;;14.20;99.90;;;;;;5075389;28;20452;-85
2023/05/21 03:03:17;;;;;;;11.40;5.20;;;14.10;99.90;;;;;;5075341;28;20498;-85
2023/05/21 03:05:47;;;;;;;12.43;5.23;;;14.20;99.90;;;;;;5075335;28;20449;-85
2023/05/21 03:08:13;;;;;;;9.07;5.97;;;14.20;99.90;;;;;;5075558;28;20812;-85
2023/05/21 03:10:40;;;;;;;13.10;5.27;;;14.10;99.90;;;;;;5075989;28;20446;-85
2023/05/21 03:13:07;;;;;;;12.60;5.40;;;14.10;99.90;;;;;;5075419;28;20449;-85
2023/05/21 03:15:34;;;;;;;11.03;4.80;;;14.10;99.90;;;;;;5075355;28;20441;-85
2023/05/21 03:18:01;;;;;;;11.33;5.80;;;14.00;99.90;;;;;;5075265;28;20552;-85
2023/05/21 03:20:28;;;;;;;9.57;5.67;;;14.00;99.90;;;;;;5075349;28;20453;-85
2023/05/21 03:22:56;;;;;;;10.67;5.30;;;14.00;99.90;;;;;;5075092;28;20872;-85
2023/05/21 03:25:23;;;;;;;9.50;5.33;;;13.90;99.90;;;;;;5075229;28;20472;-85
2023/05/21 03:27:51;;;;;;;10.50;5.90;;;14.00;99.90;;;;;;5075165;28;20453;-85
2023/05/21 03:30:18;;;;;;;8.90;5.40;;;13.90;99.90;;;;;;5075448;28;20462;-85
2023/05/21 03:32:44;;;;;;;13.37;7.03;;;13.90;99.90;;;;;;5075016;28;20507;-85
2023/05/21 03:35:11;;;;;;;15.83;5.33;;;13.90;99.90;;;;;;5074883;28;20469;-85
2023/05/21 03:37:38;;;;;;;13.93;5.77;;;13.90;99.90;;;;;;5074850;28;20812;-85
2023/05/21 03:40:07;;;;;;;11.93;7.00;;;13.80;99.90;;;;;;5074911;28;20457;-85
2023/05/21 03:42:34;;;;;;;11.33;5.60;;;13.90;99.90;;;;;;5074757;28;20446;-85
2023/05/21 03:45:01;;;;;;;7.20;4.63;;;13.80;99.90;;;;;;5074590;28;20481;-85
2023/05/21 03:47:28;;;;;;;8.97;4.73;;;13.90;99.90;;;;;;5074479;28;20434;-85
2023/05/21 03:49:55;;;;;;;10.53;5.63;;;13.80;99.90;;;;;;5074806;28;20445;-85
2023/05/21 03:52:21;;;;;;;9.90;5.60;;;13.80;99.90;;;;;;5074644;28;20441;-85
2023/05/21 03:54:48;;;;;;;8.87;5.07;;;13.80;99.90;;;;;;5073302;28;20469;-85
2023/05/21 03:57:16;;;;;;;9.97;5.83;;;13.80;99.90;;;;;;5074482;28;20449;-85
2023/05/21 03:59:43;;;;;;;8.93;5.50;;;13.80;99.90;;;;;;5074424;28;20450;-85
2023/05/21 04:02:10;;;;;;;9.63;5.67;;;13.80;99.90;;;;;;5074655;28;20453;-85
2023/05/21 04:04:36;;;;;;;11.03;5.40;;;13.80;99.90;;;;;;5074017;28;20497;-85
2023/05/21 04:07:04;;;;;;;11.13;5.30;;;13.80;99.90;;;;;;5074449;28;20453;-85
2023/05/21 04:09:31;;;;;;;10.73;5.07;;;13.80;99.90;;;;;;5074485;28;20445;-85
2023/05/21 04:11:57;;;;;;;11.13;5.53;;;13.80;99.90;;;;;;5074260;28;20448;-85
2023/05/21 04:14:26;;;;;;;11.90;6.17;;;13.70;99.90;;;;;;5074052;28;20458;-85
2023/05/21 04:16:52;;;;;;;13.00;6.07;;;13.80;99.90;;;;;;5074225;28;20823;-85
2023/05/21 04:19:19;;;;;;;11.80;4.60;;;13.80;99.90;;;;;;5074362;28;20458;-85
2023/05/21 04:21:46;;;;;;;12.37;5.70;;;13.80;99.90;;;;;;5074082;28;20453;-85
2023/05/21 04:24:13;;;;;;;11.73;6.20;;;13.80;99.90;;;;;;5073954;28;20485;-85
2023/05/21 04:26:40;;;;;;;13.30;6.60;;;13.80;99.90;;;;;;5074026;28;20453;-85
2023/05/21 04:29:08;;;;;;;12.57;6.20;;;13.80;99.90;;;;;;5073933;28;20817;-85
2023/05/21 04:31:36;;;;;;;13.60;5.67;;;13.80;99.90;;;;;;5073939;28;20916;-85
2023/05/21 04:34:03;;;;;;;10.70;5.90;;;13.90;99.90;;;;;;5073758;28;20856;-85
2023/05/21 04:36:30;;;;;;;12.03;5.80;;;13.90;99.90;;;;;;5073867;28;20507;-85
2023/05/21 04:38:57;;;;;;;11.77;5.93;;;13.90;99.90;;;;;;5073797;28;20445;-85
2023/05/21 04:41:24;;;;;;;10.47;5.67;;;13.90;99.90;;;;;;5074039;28;20803;-85
2023/05/21 04:43:53;;;;;;;7.10;4.90;;;14.00;99.90;;;;;;5073266;28;20485;-85
2023/05/21 04:46:23;;;;;;;14.23;6.60;;;13.90;99.90;;;;;;5073475;28;20959;-85
2023/05/21 04:48:53;;;;;;;13.87;6.47;;;14.00;99.90;;;;;;5074042;28;20450;-85
2023/05/21 04:51:20;;;;;;;15.00;6.30;;;14.00;99.90;;;;;;5073382;28;20556;-85
2023/05/21 04:53:48;;;;;;;13.70;6.80;;;14.00;99.90;;;;;;5073597;28;20472;-85
2023/05/21 04:56:17;;;;;;;10.37;5.20;;;14.00;99.90;;;;;;5073582;28;20523;-85
2023/05/21 04:58:44;;;;;;;9.10;5.67;;;14.10;99.90;;;;;;5073688;28;20512;-85
2023/05/21 05:01:11;;;;;;;11.40;5.77;;;14.00;99.90;;;;;;5073218;28;20994;-85
2023/05/21 05:03:38;;;;;;;13.20;6.10;;;14.10;99.90;;;;;;5073144;28;20497;-85
2023/05/21 05:06:07;;;;;;;9.03;5.73;;;14.20;99.90;;;;;;5073257;28;20464;-85
2023/05/21 05:08:34;;;;;;;13.37;6.10;;;14.10;99.90;;;;;;5073709;28;20445;-85
2023/05/21 05:11:01;;;;;;;8.23;4.53;;;14.20;99.90;;;;;;5073438;28;20449;-85
2023/05/21 05:13:27;;;;;;;12.33;5.70;;;14.20;99.90;;;;;;5073280;28;20470;-85
2023/05/21 05:15:56;;;;;;;10.43;6.13;;;14.30;99.90;;;;;;5073566;28;20460;-85
2023/05/21 05:18:22;;;;;;;9.50;5.23;;;14.30;99.90;;;;;;5073473;28;20519;-85
2023/05/21 05:20:49;;;;;;;11.73;5.90;;;14.30;99.90;;;;;;5073382;28;20468;-85
2023/05/21 05:23:17;;;;;;;11.53;5.67;;;14.40;99.90;;;;;;5073361;28;20449;-85
2023/05/21 05:25:44;;;;;;;12.63;6.33;;;14.40;99.90;;;;;;5073342;28;20851;-85
2023/05/21 05:28:11;;;;;;;9.10;5.53;;;14.50;99.90;;;;;;5073075;28;20453;-85
2023/05/21 05:30:37;;;;;;;12.93;6.33;;;14.60;99.90;;;;;;5073357;28;20453;-85
2023/05/21 05:33:04;;;;;;;11.63;6.47;;;14.60;99.90;;;;;;5073330;28;20445;-85
2023/05/21 05:35:31;;;;;;;11.77;6.13;;;14.60;99.90;;;;;;5073175;28;20452;-85
2023/05/21 05:37:58;;;;;;;10.17;5.30;;;14.70;99.90;;;;;;5073351;28;20453;-85
2023/05/21 05:40:26;;;;;;;8.80;5.47;;;14.80;99.90;;;;;;5073138;28;20524;-85
2023/05/21 05:42:53;;;;;;;12.47;6.00;;;14.80;99.90;;;;;;5073337;28;20444;-85
2023/05/21 05:45:20;;;;;;;10.83;5.50;;;14.90;99.90;;;;;;5072952;28;20846;-85
2023/05/21 05:47:47;;;;;;;10.90;5.70;;;14.90;99.90;;;;;;5072908;28;21006;-85
2023/05/21 05:50:13;;;;;;;13.13;6.93;;;14.90;99.90;;;;;;5073225;28;20456;-85
2023/05/21 05:52:40;;;;;;;9.73;4.83;;;15.00;99.90;;;;;;5073148;28;20450;-85
2023/05/21 05:55:08;;;;;;;10.27;6.27;;;15.10;99.90;;;;;;5072923;28;20468;-85
2023/05/21 05:57:36;;;;;;;9.47;5.73;;;15.30;99.90;;;;;;5073000;28;20449;-85
2023/05/21 06:00:03;;;;;;;10.93;5.70;;;15.40;99.90;;;;;;5073029;28;20442;-86
2023/05/21 06:02:30;;;;;;;11.83;6.77;;;15.60;99.90;;;;;;5072700;28;20444;-86
2023/05/21 06:04:57;;;;;;;14.83;7.17;;;15.80;99.90;;;;;;5072925;28;20497;-86
2023/05/21 06:07:24;;;;;;;12.10;6.20;;;15.90;99.90;;;;;;5072742;28;20473;-85
2023/05/21 06:09:50;;;;;;;17.23;7.10;;;16.00;99.90;;;;;;5072611;28;20464;-86
2023/05/21 06:12:17;;;;;;;12.40;6.27;;;16.20;99.90;;;;;;5072784;28;20440;-86
2023/05/21 06:14:47;;;;;;;11.97;6.87;;;16.30;99.90;;;;;;5072649;28;20984;-86
2023/05/21 06:17:15;;;;;;;11.17;4.97;;;16.50;99.90;;;;;;5073089;28;20446;-85
2023/05/21 06:19:41;;;;;;;12.00;6.00;;;16.60;99.90;;;;;;5075245;28;20942;-85
2023/05/21 06:22:08;;;;;;;11.37;5.60;;;16.80;99.90;;;;;;5076145;28;20437;-85
2023/05/21 06:24:35;;;;;;;9.80;6.90;;;16.90;99.90;;;;;;5076228;28;20607;-85
2023/05/21 06:27:02;;;;;;;12.23;7.20;;;17.00;99.90;;;;;;5076310;28;20449;-85
2023/05/21 06:29:29;;;;;;;14.07;6.83;;;17.10;99.90;;;;;;5076195;28;20960;-85
2023/05/21 06:31:57;;;;;;;13.33;7.27;;;17.30;99.90;;;;;;5076201;28;20453;-85
2023/05/21 06:34:24;;;;;;;21.20;6.90;;;17.40;99.90;;;;;;5076039;28;21004;-85
2023/05/21 06:36:51;;;;;;;8.60;5.80;;;17.60;99.90;;;;;;5076127;28;20457;-85
2023/05/21 06:39:18;;;;;;;9.63;6.63;;;17.90;99.90;;;;;;5076137;28;20437;-86
2023/05/21 06:41:45;;;;;;;12.40;6.83;;;18.20;99.90;;;;;;5076162;28;20483;-86
2023/05/21 06:44:11;;;;;;;10.07;6.63;;;18.30;99.90;;;;;;5075900;28;20530;-85
2023/05/21 06:46:38;;;;;;;14.43;6.17;;;18.40;99.90;;;;;;5076090;28;20445;-85
2023/05/21 06:49:06;;;;;;;10.80;6.07;;;18.50;99.90;;;;;;5075980;28;20445;-85
2023/05/21 06:51:33;;;;;;;12.17;6.80;;;18.60;99.90;;;;;;5075862;28;20414;-85
2023/05/21 06:54:00;;;;;;;10.63;6.40;;;18.70;99.90;;;;;;5075798;28;20462;-85
2023/05/21 06:56:27;;;;;;;19.30;7.00;;;18.80;99.90;;;;;;5075520;28;20456;-85
2023/05/21 06:58:54;;;;;;;11.20;6.23;;;18.90;99.90;;;;;;5075699;28;20506;-86
2023/05/21 07:01:21;;;;;;;14.57;7.13;;;19.00;99.90;;;;;;5075766;28;20495;-86
2023/05/21 07:03:48;;;;;;;9.80;5.13;;;19.20;99.90;;;;;;5075283;28;20503;-87
2023/05/21 07:06:17;;;;;;;9.93;6.70;;;19.20;99.90;;;;;;5075686;28;20456;-86
2023/05/21 07:08:43;;;;;;;8.70;5.63;;;19.30;99.90;;;;;;5075544;28;20898;-86
2023/05/21 07:11:10;;;;;;;11.60;5.40;;;19.40;99.90;;;;;;5075665;28;20811;-86
2023/05/21 07:13:37;;;;;;;9.67;5.90;;;19.50;99.90;;;;;;5082448;28;20464;-86
2023/05/21 07:16:04;;;;;;;9.27;6.40;;;19.80;99.90;;;;;;5076451;28;20453;-87
2023/05/21 07:18:31;;;;;;;9.73;6.23;;;19.90;99.90;;;;;;5075541;28;20801;-86
2023/05/21 07:20:58;;;;;;;8.90;5.23;;;20.20;99.90;;;;;;5075506;28;20457;-86
2023/05/21 07:23:26;;;;;;;7.87;5.70;;;20.40;99.90;;;;;;5075396;28;20479;-86
2023/05/21 07:25:53;;;;;;;10.80;6.03;;;20.80;99.90;;;;;;5075562;28;20492;-87
2023/05/21 07:28:20;;;;;;;11.67;6.17;;;21.30;99.90;;;;;;5075458;28;20543;-87
2023/05/21 07:30:46;;;;;;;12.97;6.80;;;21.80;99.90;;;;;;5075323;28;20510;-87
2023/05/21 07:33:13;;;;;;;10.27;5.57;;;22.40;99.90;;;;;;5075160;28;20206;-87
2023/05/21 07:35:40;;;;;;;7.53;4.90;;;23.20;99.90;;;;;;5075426;28;20195;-87
2023/05/21 07:38:07;;;;;;;6.72;4.82;;;23.80;99.90;;;;;;5075290;28;20263;-87
2023/05/21 07:40:35;;;;;;;7.60;5.78;;;24.40;99.90;;;;;;5074860;28;20696;-87
2023/05/21 07:43:02;;;;;;;7.22;4.78;;;25.30;99.90;;;;;;5075039;28;20206;-87
2023/05/21 07:45:28;;;;;;;6.32;5.25;;;26.20;99.90;;;;;;5074989;28;20223;-87
2023/05/21 07:47:55;;;;;;;5.07;4.53;;;27.00;99.90;;;;;;5075092;28;20207;-87
2023/05/21 07:50:22;;;;;;;7.20;5.60;;;27.70;99.90;;;;;;5074801;28;20203;-86
2023/05/21 07:52:49;;;;;;;4.80;4.28;;;27.50;99.90;;;;;;5074875;28;20203;-87
2023/05/21 07:55:15;;;;;;;6.00;4.88;;;26.60;99.90;;;;;;5074476;28;20219;-86
2023/05/21 07:57:44;;;;;;;6.70;4.72;;;26.40;99.90;;;;;;5074409;28;20214;-86
2023/05/21 08:00:13;;;;;;;5.03;4.53;;;27.30;99.90;;;;;;5074617;28;20208;-87
2023/05/21 08:02:39;;;;;;;6.28;4.35;;;28.50;99.90;;;;;;5074586;28;20272;-89
2023/05/21 08:05:07;;;;;;;6.15;4.38;;;29.70;99.40;;;;;;5074022;28;20706;-87
2023/05/21 08:07:34;;;;;;;4.22;3.83;;;30.40;94.90;;;;;;5074061;28;20191;-85
2023/05/21 08:10:00;;;;;;;5.35;4.20;;;30.30;93.10;;;;;;5074260;28;20207;-86
2023/05/21 08:12:27;;;;;;;4.78;3.72;;;29.70;92.90;;;;;;5073887;28;20705;-85
2023/05/21 08:14:58;;;;;;;5.63;4.22;;;28.90;92.80;;;;;;5074161;28;20224;-85
2023/05/21 08:17:24;;;;;;;5.32;4.60;;;28.00;93.30;;;;;;5074278;28;20214;-85
2023/05/21 08:19:51;;;;;;;4.32;3.92;;;27.00;94.40;;;;;;5074077;28;20198;-85
2023/05/21 08:22:18;;;;;;;4.68;3.88;;;26.10;95.20;;;;;;5074025;28;20206;-85
2023/05/21 08:24:50;;;;;;;4.97;3.92;;;25.50;96.70;;;;;;5073842;28;20226;-84
2023/05/21 08:27:17;;;;;;;6.05;3.63;;;24.90;98.00;;;;;;5074017;28;20195;-85
2023/05/21 08:29:44;;;;;;;4.45;3.97;;;24.70;98.00;;;;;;5073858;28;20286;-85
2023/05/21 08:32:12;;;;;;;7.75;4.97;;;24.60;99.60;;;;;;5073619;28;20717;-85
2023/05/21 08:34:39;;;;;;;5.63;4.80;;;24.60;99.90;;;;;;5073500;28;20215;-85
2023/05/21 08:37:06;;;;;;;4.70;4.20;;;24.60;99.90;;;;;;5073861;28;20211;-85
2023/05/21 08:39:33;;;;;;;5.50;3.88;;;24.70;99.90;;;;;;5074244;28;20233;-84
2023/05/21 08:42:06;;;;;;;5.03;4.28;;;24.90;99.80;;;;;;5074983;28;20194;-88
2023/05/21 08:44:36;;;;;;;6.53;4.82;;;24.90;99.90;;;;;;5074219;28;20229;-88
2023/05/21 08:47:07;;;;;;;4.18;3.05;;;24.80;99.90;;;;;;5074426;28;20666;-89
2023/05/21 08:49:35;;;;;;;8.10;4.18;;;24.80;99.90;;;;;;5074610;28;20182;-89
2023/05/21 08:52:02;;;;;;;10.02;4.10;;;24.80;99.90;;;;;;5074720;28;20676;-88
2023/05/21 08:54:29;;;;;;;7.50;4.35;;;24.70;99.60;;;;;;5073874;28;20709;-88
2023/05/21 08:56:57;;;;;;;5.93;4.13;;;24.80;99.50;;;;;;5074621;28;20210;-88
2023/05/21 08:59:24;;;;;;;5.88;4.78;;;24.60;99.90;;;;;;5074424;28;20207;-89
2023/05/21 09:01:52;;;;;;;5.38;3.88;;;24.50;99.90;;;;;;5074204;28;20225;-89
2023/05/21 09:04:19;;;;;;;7.82;5.10;;;24.40;99.90;;;;;;5073891;28;20238;-88
2023/05/21 09:06:48;;;;;;;4.97;4.05;;;24.20;99.90;;;;;;5074387;28;20218;-89
2023/05/21 09:09:20;;;;;;;8.73;4.78;;;24.30;99.90;;;;;;5074394;28;20203;-91
2023/05/21 09:11:47;;;;;;;5.72;3.70;;;24.40;99.90;;;;;;5074349;28;20194;-90
2023/05/21 09:14:14;;;;;;;5.57;4.13;;;24.50;99.90;;;;;;5073961;28;20217;-90
2023/05/21 09:16:41;;;;;;;5.22;3.97;;;24.60;99.30;;;;;;5074092;28;20205;-89
2023/05/21 09:19:08;;;;;;;6.82;4.20;;;24.70;99.40;;;;;;5074356;28;20206;-88
2023/05/21 09:21:35;;;;;;;5.85;4.75;;;24.70;99.80;;;;;;5074385;28;20693;-89
2023/05/21 09:24:04;;;;;;;5.78;4.32;;;24.70;99.70;;;;;;5074357;28;20309;-89
2023/05/21 09:26:31;;;;;;;6.03;3.92;;;24.80;99.90;;;;;;5075069;28;20224;-90
2023/05/21 09:28:59;;;;;;;7.10;4.53;;;24.80;99.90;;;;;;5074126;28;20209;-90
2023/05/21 09:31:26;;;;;;;5.80;3.88;;;24.80;99.90;;;;;;5074441;28;20562;-89
2023/05/21 09:33:54;;;;;;;4.70;3.65;;;24.70;99.90;;;;;;5074083;28;20223;-90
2023/05/21 09:36:21;;;;;;;4.82;4.32;;;24.80;99.90;;;;;;5074209;28;20198;-89
2023/05/21 09:38:49;;;;;;;5.50;3.72;;;24.90;99.90;;;;;;5074128;28;20203;-88
2023/05/21 09:41:17;;;;;;;6.70;4.13;;;24.80;99.90;;;;;;5074412;28;20542;-89
2023/05/21 09:43:44;;;;;;;5.10;4.57;;;24.70;99.90;;;;;;5073706;28;20226;-88
2023/05/21 09:46:11;;;;;;;7.00;4.63;;;24.60;99.90;;;;;;5073845;28;20686;-88
2023/05/21 09:48:40;;;;;;;9.82;4.32;;;24.50;99.90;;;;;;5073890;28;20199;-89
2023/05/21 09:51:11;;;;;;;7.10;4.60;;;24.50;99.90;;;;;;5073784;28;20209;-87
2023/05/21 09:53:44;;;;;;;8.70;4.57;;;24.50;99.90;;;;;;5075219;28;20233;-89
2023/05/21 09:56:11;;;;;;;5.90;3.88;;;24.60;99.90;;;;;;5077786;28;20561;-89
2023/05/21 09:58:40;;;;;;;4.60;3.88;;;24.60;99.90;;;;;;5080356;28;20213;-89
2023/05/21 10:01:07;;;;;;;6.32;4.22;;;24.70;99.90;;;;;;5083699;28;20199;-88
2023/05/21 10:03:39;;;;;;;5.40;3.95;;;24.80;99.90;;;;;;5077864;28;20234;-89
2023/05/21 10:06:07;;;;;;;6.18;4.03;;;24.90;99.90;;;;;;5078699;28;20207;-89
2023/05/21 10:08:36;;;;;;;4.80;4.22;;;25.00;99.90;;;;;;5078056;28;20199;-89
2023/05/21 10:11:05;;;;;;;6.18;4.43;;;25.10;99.90;;;;;;5077850;28;20203;-90
2023/05/21 10:13:36;;;;;;;4.63;4.13;;;25.20;99.20;;;;;;5077799;28;20225;-90
2023/05/21 10:16:05;;;;;;;9.65;4.10;;;25.20;99.80;;;;;;5077543;28;20546;-89
2023/05/21 10:18:33;;;;;;;4.95;4.53;;;25.20;99.10;;;;;;5077628;28;20213;-90
2023/05/21 10:21:00;;;;;;;6.38;5.53;;;25.20;99.40;;;;;;5077329;28;20206;-89
2023/05/21 10:23:28;;;;;;;5.78;4.85;;;25.20;99.90;;;;;;5077338;28;20223;-89
2023/05/21 10:25:57;;;;;;;4.88;3.90;;;25.40;99.90;;;;;;5077240;28;20581;-89
2023/05/21 10:28:24;;;;;;;4.88;3.70;;;25.40;98.40;;;;;;5077182;28;20575;-89
2023/05/21 10:30:52;;;;;;;4.22;3.60;;;25.30;99.00;;;;;;5076922;28;20198;-92
2023/05/21 10:33:22;;;;;;;4.10;3.28;;;25.40;98.30;;;;;;5077085;28;20206;-90
2023/05/21 10:35:51;;;;;;;7.47;3.83;;;25.40;98.60;;;;;;5076721;28;20211;-89
2023/05/21 10:38:19;;;;;;;6.50;4.15;;;25.50;98.90;;;;;;5077140;28;20213;-89
2023/05/21 10:40:47;;;;;;;6.30;4.22;;;25.50;98.00;;;;;;5076617;28;20202;-90
2023/05/21 10:43:37;;;;;;;5.63;4.47;;;25.60;97.50;;;;;;5076923;28;20240;-89
2023/05/21 10:46:16;;;;;;;5.93;4.82;;;25.60;97.10;;;;;;5077621;28;20559;-90
2023/05/21 10:49:05;;;;;;;4.28;3.60;;;25.40;98.30;;;;;;5076887;28;20575;-88
2023/05/21 10:51:44;;;;;;;4.70;4.03;;;25.40;97.90;;;;;;5076790;28;20186;-89
2023/05/21 10:54:43;;;;;;;4.75;4.10;;;25.40;98.90;;;;;;5077089;28;20218;-90
2023/05/21 10:57:27;;;;;;;5.40;4.30;;;25.60;98.20;;;;;;5076546;28;20189;-87
2023/05/21 10:59:55;;;;;;;6.20;4.55;;;25.80;97.50;;;;;;5076565;28;20183;-89
2023/05/21 11:02:26;;;;;;;4.63;3.80;;;26.10;98.00;;;;;;5076272;28;20198;-89
2023/05/21 11:05:00;;;;;;;4.60;3.83;;;26.50;96.30;;;;;;5075799;28;20225;-88
2023/05/21 11:07:52;;;;;;;4.70;4.20;;;26.70;96.10;;;;;;5076051;28;20210;-89
2023/05/21 11:10:35;;;;;;;4.80;4.22;;;26.80;96.60;;;;;;5076561;28;20638;-88
2023/05/21 11:13:10;;;;;;;8.32;4.15;;;26.50;96.40;;;;;;5076429;28;20200;-90
2023/05/21 11:16:13;;;;;;;4.15;2.83;;;26.30;95.10;;;;;;5076423;28;20186;-90
2023/05/21 11:19:02;;;;;;;3.47;2.92;;;25.90;95.60;;;;;;5076271;28;20193;-90
2023/05/21 11:21:33;;;;;;;6.05;4.50;;;25.80;95.40;;;;;;5076272;28;20187;-89
2023/05/21 11:24:02;;;;;;;4.75;4.25;;;25.70;95.30;;;;;;5076073;28;20222;-89
2023/05/21 11:26:50;;;;;;;6.18;3.47;;;25.60;95.00;;;;;;5076188;28;20229;-89
2023/05/21 11:29:18;;;;;;;4.20;3.80;;;25.40;96.00;;;;;;5075575;28;20207;-89
2023/05/21 11:31:46;;;;;;;3.50;3.10;;;25.40;95.40;;;;;;5076117;28;20567;-89
2023/05/21 11:34:13;;;;;;;4.47;4.07;;;25.30;94.50;;;;;;5075489;28;20225;-89
2023/05/21 11:36:44;;;;;;;5.28;4.15;;;25.20;95.60;;;;;;5075812;28;20210;-89
2023/05/21 11:39:14;;;;;;;8.10;4.78;;;25.20;97.10;;;;;;5075836;28;20191;-88
2023/05/21 11:41:53;;;;;;;4.95;3.78;;;25.20;97.70;;;;;;5075205;28;20697;-87
2023/05/21 11:44:37;;;;;;;4.60;3.95;;;25.20;97.90;;;;;;5075184;28;20222;-89
2023/05/21 11:47:05;;;;;;;6.72;3.88;;;25.10;97.70;;;;;;5075467;28;20578;-88
2023/05/21 11:49:32;;;;;;;5.55;4.25;;;25.10;97.40;;;;;;5075503;28;20199;-88
2023/05/21 11:52:01;;;;;;;3.95;3.55;;;24.90;97.80;;;;;;5075593;28;20213;-88
2023/05/21 11:54:28;;;;;;;5.78;3.92;;;25.00;98.30;;;;;;5075085;28;20277;-89
2023/05/21 11:56:55;;;;;;;4.95;4.45;;;25.00;97.40;;;;;;5075482;28;20238;-90
2023/05/21 11:59:22;;;;;;;4.03;3.72;;;25.00;97.50;;;;;;5075740;28;20228;-91
2023/05/21 12:01:49;;;;;;;8.82;4.50;;;25.00;96.90;;;;;;5075286;28;20203;-89
2023/05/21 12:04:15;;;;;;;4.70;3.85;;;24.90;96.50;;;;;;5074678;28;20612;-88
2023/05/21 12:06:43;;;;;;;5.57;4.50;;;24.80;96.80;;;;;;5075131;28;20301;-88
2023/05/21 12:09:12;;;;;;;4.28;3.40;;;24.80;96.70;;;;;;5075123;28;20203;-87
2023/05/21 12:11:39;;;;;;;4.97;3.28;;;24.70;96.10;;;;;;5075005;28;20252;-89
2023/05/21 12:14:22;;;;;;;4.18;3.78;;;24.70;95.90;;;;;;5132727;27;20573;-89
2023/05/21 12:16:49;;;;;;;5.25;3.70;;;24.60;95.70;;;;;;5132673;27;20201;-90
2023/05/21 12:19:17;;;;;;;4.43;4.03;;;24.60;96.00;;;;;;5132451;27;20676;-89
2023/05/21 12:21:44;;;;;;;3.67;2.95;;;24.40;96.30;;;;;;5132825;27;20196;-88
2023/05/21 12:24:11;;;;;;;6.38;4.35;;;24.60;96.50;;;;;;5141690;27;20237;-88
2023/05/21 12:26:38;;;;;;;5.03;3.70;;;24.50;97.10;;;;;;5132398;27;20200;-88
2023/05/21 12:29:06;;;;;;;4.00;3.60;;;24.50;96.20;;;;;;5132497;27;20207;-89
2023/05/21 12:31:47;;;;;;;4.88;3.92;;;24.60;96.40;;;;;;5132587;27;20551;-89
2023/05/21 12:34:17;;;;;;;4.43;3.30;;;24.60;96.40;;;;;;5132359;27;20225;-89
2023/05/21 12:36:47;;;;;;;7.57;4.30;;;24.70;96.10;;;;;;5132198;27;20242;-88
2023/05/21 12:39:14;;;;;;;4.43;3.83;;;24.80;95.40;;;;;;5132375;27;20204;-89
2023/05/21 12:41:40;;;;;;;6.70;3.97;;;24.70;95.20;;;;;;5132468;27;20554;-88
2023/05/21 12:44:07;;;;;;;3.47;3.08;;;24.60;96.30;;;;;;5132227;27;20221;-88
2023/05/21 12:46:36;;;;;;;3.78;3.35;;;24.40;96.30;;;;;;5132748;27;20200;-90
2023/05/21 12:49:03;;;;;;;5.15;3.35;;;24.20;95.60;;;;;;5132441;27;20204;-87